createdAt,value
2018-03-04T09:14:32.336Z,472
2018-03-04T09:17:13.737Z,492
2018-03-04T09:19:15.270Z,532
2018-03-04T09:21:16.663Z,568
2018-03-04T09:23:18.145Z,620
2018-03-04T09:25:27.962Z,600
2018-03-04T09:27:29.640Z,528
2018-03-04T09:29:31.062Z,484
2018-03-04T09:31:32.520Z,464
2018-03-04T09:34:14.960Z,360
2018-03-04T09:36:16.518Z,384
2018-03-04T09:38:17.926Z,500
2018-03-04T09:40:21.013Z,604
2018-03-04T09:42:29.125Z,564
2018-03-04T09:44:30.647Z,516
2018-03-04T09:47:12.229Z,588
2018-03-04T09:49:54.772Z,588
2018-03-04T09:52:45.517Z,720
2018-03-04T09:55:28.067Z,836
2018-03-04T09:57:29.471Z,828
2018-03-04T09:59:31.690Z,828
2018-03-04T10:01:33.284Z,860
2018-03-04T10:03:34.957Z,1028
2018-03-04T10:05:36.901Z,952
2018-03-04T10:07:38.743Z,828
2018-03-04T10:09:41.117Z,976
2018-03-04T10:11:42.853Z,1340
2018-03-04T10:13:44.935Z,1528
2018-03-04T10:15:46.457Z,1472
2018-03-04T10:17:50.779Z,1364
2018-03-04T10:19:52.666Z,1528
2018-03-04T10:21:54.354Z,1888
2018-03-04T10:23:55.939Z,1872
2018-03-04T10:25:58.527Z,1824
2018-03-04T10:28:00.182Z,1672
2018-03-04T10:30:01.921Z,1432
2018-03-04T10:32:04.288Z,1236
2018-03-04T10:34:06.452Z,1192
2018-03-04T10:36:08.066Z,1360
2018-03-04T10:38:49.434Z,1536
2018-03-04T10:40:50.841Z,1488
2018-03-04T10:42:52.245Z,1464
2018-03-04T10:44:53.658Z,1432
2018-03-04T10:46:55.066Z,1460
2018-03-04T10:48:56.511Z,1548
2018-03-04T10:50:57.917Z,1688
2018-03-04T10:52:59.324Z,1960
2018-03-04T10:55:00.734Z,2124
2018-03-04T10:57:02.145Z,1964
2018-03-04T10:59:03.545Z,1660
2018-03-04T11:01:04.963Z,1624
2018-03-04T11:03:06.368Z,1924
2018-03-04T11:05:08.675Z,2524
2018-03-04T11:07:11.307Z,2572
2018-03-04T11:09:13.894Z,2592
2018-03-04T11:11:15.463Z,2448
2018-03-04T11:13:17.722Z,2240
2018-03-04T11:15:19.440Z,2192
2018-03-04T11:17:20.808Z,2500
2018-03-04T11:19:22.874Z,2984
2018-03-04T11:21:24.379Z,3240
2018-03-04T11:23:25.800Z,3280
2018-03-04T11:25:27.235Z,2892
2018-03-04T11:27:28.645Z,3872
2018-03-04T11:29:30.065Z,4704
2018-03-04T11:31:31.523Z,4828
2018-03-04T11:33:32.947Z,4676
2018-03-04T11:35:34.446Z,4488
2018-03-04T11:37:35.859Z,4284
2018-03-04T11:39:37.363Z,4204
2018-03-04T11:41:38.821Z,4188
2018-03-04T11:43:40.236Z,4124
2018-03-04T11:45:41.649Z,4080
2018-03-04T11:47:43.071Z,3988
2018-03-04T11:49:44.484Z,3932
2018-03-04T11:51:45.892Z,4012
2018-03-04T11:53:47.404Z,4080
2018-03-04T11:55:48.886Z,3616
2018-03-04T11:57:51.552Z,3848
2018-03-04T11:59:53.729Z,3820
2018-03-04T12:01:55.805Z,3848
2018-03-04T12:03:57.334Z,3880
2018-03-04T12:06:39.968Z,2944
2018-03-04T12:08:41.384Z,3988
2018-03-04T12:10:42.804Z,2300
2018-03-04T12:12:44.231Z,2312
2018-03-04T12:14:45.645Z,2280
2018-03-04T12:16:47.062Z,2728
2018-03-04T12:18:48.504Z,2732
2018-03-04T12:20:49.921Z,2664
2018-03-04T12:22:51.333Z,3288
2018-03-04T12:25:33.824Z,3304
2018-03-04T12:27:36.320Z,3032
2018-03-04T12:29:39.656Z,3100
2018-03-04T12:31:42.656Z,3148
2018-03-04T12:33:44.133Z,3108
2018-03-04T12:35:45.603Z,2784
2018-03-04T12:37:47.123Z,2244
2018-03-04T12:39:48.620Z,2764
2018-03-04T12:41:50.114Z,2956
2018-03-04T12:44:31.503Z,1032
2018-03-04T12:46:32.917Z,1108
2018-03-04T12:48:35.898Z,1208
2018-03-04T12:50:37.306Z,1272
2018-03-04T12:52:38.729Z,1376
2018-03-04T12:54:40.138Z,1516
2018-03-04T12:56:41.564Z,1880
2018-03-04T12:58:42.976Z,1828
2018-03-04T13:00:44.390Z,1964
2018-03-04T13:03:26.980Z,2028
2018-03-04T13:05:28.382Z,2672
2018-03-04T13:07:29.807Z,3336
2018-03-04T13:09:31.216Z,3104
2018-03-04T13:11:32.637Z,2752
2018-03-04T13:13:35.119Z,2560
2018-03-04T13:15:36.577Z,2440
2018-03-04T13:17:37.940Z,2348
2018-03-04T13:19:39.387Z,2236
2018-03-04T13:21:40.812Z,2096
2018-03-04T13:24:23.214Z,2012
2018-03-04T13:26:24.628Z,1988
2018-03-04T13:28:26.049Z,1948
2018-03-04T13:30:27.467Z,1936
2018-03-04T13:32:28.882Z,1880
2018-03-04T13:34:30.302Z,1880
2018-03-04T13:36:31.710Z,1880
2018-03-04T13:38:33.184Z,1880
2018-03-04T13:40:34.666Z,1840
2018-03-04T13:42:37.864Z,1624
2018-03-04T13:44:39.209Z,1836
2018-03-04T13:46:40.649Z,1804
2018-03-04T13:48:42.093Z,1676
2018-03-04T13:50:43.551Z,1756
2018-03-04T13:52:45.282Z,1732
2018-03-04T13:54:46.938Z,1728
2018-03-04T13:56:48.406Z,1732
2018-03-04T13:58:49.852Z,1712
2018-03-04T14:00:51.861Z,1564
2018-03-04T14:02:53.414Z,1496
2018-03-04T14:04:55.145Z,1372
2018-03-04T14:06:56.683Z,1432
2018-03-04T14:08:58.096Z,1452
2018-03-04T14:10:59.508Z,1532
2018-03-04T14:13:00.938Z,1600
2018-03-04T14:15:02.358Z,1652
2018-03-04T14:17:03.780Z,1600
2018-03-04T14:19:05.214Z,1548
2018-03-04T14:21:06.689Z,1248
2018-03-04T14:23:08.111Z,1136
2018-03-04T14:25:09.525Z,1148
2018-03-04T14:27:11.053Z,1236
2018-03-04T14:29:12.549Z,1352
2018-03-04T14:31:14.004Z,1452
2018-03-04T14:33:15.623Z,1484
2018-03-04T14:35:17.114Z,1448
2018-03-04T14:37:18.641Z,1356
2018-03-04T14:39:20.045Z,1224
2018-03-04T14:41:21.460Z,1112
2018-03-04T14:43:22.880Z,1096
2018-03-04T14:45:24.377Z,1088
2018-03-04T14:47:25.813Z,1108
2018-03-04T14:49:27.252Z,1060
2018-03-04T14:52:10.104Z,1036
2018-03-04T14:54:12.012Z,1044
2018-03-04T14:56:13.418Z,1040
2018-03-04T14:58:14.854Z,1052
2018-03-04T15:00:16.272Z,1072
2018-03-04T15:02:17.684Z,1056
2018-03-04T15:04:19.104Z,1024
2018-03-04T15:06:20.527Z,988
2018-03-04T15:08:22.063Z,976
2018-03-04T15:10:23.508Z,936
2018-03-04T15:12:24.944Z,864
2018-03-04T15:14:28.921Z,840
2018-03-04T15:16:30.520Z,804
2018-03-04T15:18:31.945Z,764
2018-03-04T15:20:33.649Z,708
2018-03-04T15:22:35.087Z,656
2018-03-04T15:24:36.505Z,616
2018-03-04T15:26:37.990Z,580
2018-03-04T15:28:39.886Z,564
2018-03-04T15:31:22.653Z,544
2018-03-04T15:33:24.527Z,540
2018-03-04T15:35:26.292Z,552
2018-03-04T15:37:27.865Z,560
2018-03-04T15:39:29.447Z,556
2018-03-04T15:41:30.881Z,556
2018-03-04T15:43:32.343Z,560
2018-03-04T15:45:33.875Z,560
2018-03-04T15:47:35.357Z,552
2018-03-04T15:50:18.979Z,520
2018-03-04T15:52:20.568Z,484
2018-03-04T15:54:22.495Z,436
2018-03-04T15:56:24.061Z,392
2018-03-04T15:58:25.798Z,352
2018-03-04T16:00:27.532Z,320
2018-03-04T16:02:30.467Z,308
2018-03-04T16:04:32.271Z,300
2018-03-04T16:06:34.045Z,292
2018-03-04T16:08:35.459Z,284
2018-03-04T16:10:36.891Z,280
2018-03-04T16:12:38.345Z,268
2018-03-04T16:14:39.836Z,260
2018-03-04T16:16:41.295Z,248
2018-03-04T16:18:42.840Z,232
2018-03-04T16:20:44.826Z,220
2018-03-04T16:22:46.687Z,208
2018-03-04T16:24:48.470Z,196
2018-03-04T16:26:55.166Z,180
2018-03-04T16:28:56.566Z,168
2018-03-04T16:31:39.827Z,152
2018-03-04T16:33:41.241Z,140
2018-03-04T16:35:42.653Z,132
2018-03-04T16:37:44.065Z,120
2018-03-04T16:39:45.530Z,116
2018-03-04T16:41:48.319Z,104
2018-03-04T16:43:49.695Z,100
2018-03-04T16:45:51.178Z,96
2018-03-04T16:47:52.604Z,92
2018-03-04T16:49:54.076Z,84
2018-03-04T16:51:55.623Z,72
2018-03-04T16:53:57.094Z,64
2018-03-04T16:55:58.586Z,56
2018-03-04T16:58:00.033Z,48
2018-03-04T17:00:01.497Z,44
2018-03-04T17:02:03.094Z,36
2018-03-04T17:04:05.155Z,32
2018-03-04T17:06:06.568Z,32
2018-03-04T17:08:49.557Z,20
2018-03-04T17:10:51.873Z,20
2018-03-04T17:12:53.287Z,16
2018-03-04T17:14:54.693Z,16
2018-03-04T17:16:56.116Z,12
2018-03-04T17:18:57.645Z,8
2018-03-04T17:20:59.725Z,8
2018-03-04T17:23:01.155Z,4
2018-03-04T17:25:03.237Z,4
2018-03-04T17:27:04.641Z,4
2018-03-04T17:29:06.057Z,4
2018-03-04T17:31:07.466Z,4
2018-03-04T17:33:08.874Z,0
2018-03-04T17:35:10.290Z,4
2018-03-04T17:37:12.450Z,0
2018-03-04T17:39:13.811Z,0
2018-03-04T17:41:15.232Z,0
2018-03-04T17:43:20.065Z,0
2018-03-04T17:45:22.393Z,0
2018-03-04T17:47:23.809Z,0
2018-03-04T17:49:25.911Z,0
2018-03-04T17:51:27.339Z,0
2018-03-04T17:53:28.750Z,0
2018-03-04T17:55:31.070Z,0
2018-03-04T17:57:32.483Z,0
2018-03-04T17:59:34.756Z,0
2018-03-04T18:01:36.969Z,0
2018-03-04T18:03:39.353Z,0
2018-03-04T18:05:40.823Z,0
2018-03-04T18:07:43.159Z,0
2018-03-04T18:09:44.566Z,0
2018-03-04T18:11:45.974Z,0
2018-03-04T18:13:47.896Z,0
2018-03-04T18:15:49.851Z,0
2018-03-04T18:17:52.022Z,0
2018-03-04T18:19:52.638Z,0
2018-03-04T18:21:54.059Z,0
2018-03-04T18:23:57.249Z,0
2018-03-04T18:25:58.667Z,0
2018-03-04T18:28:00.741Z,0
2018-03-04T18:30:02.733Z,0
2018-03-04T18:32:04.875Z,0
2018-03-04T18:34:06.284Z,0
2018-03-04T18:36:09.214Z,0
2018-03-04T18:38:10.620Z,0
2018-03-04T18:40:12.984Z,0
2018-03-04T18:42:14.983Z,0
2018-03-04T18:44:17.230Z,0
2018-03-04T18:46:19.087Z,0
2018-03-04T18:48:21.184Z,0
2018-03-04T18:50:22.588Z,0
2018-03-04T18:52:24.003Z,0
2018-03-04T18:54:25.564Z,0
2018-03-04T18:56:27.953Z,0
2018-03-04T18:58:29.360Z,0
2018-03-04T19:00:31.741Z,0
2018-03-04T19:02:33.860Z,0
2018-03-04T19:04:35.261Z,0
2018-03-04T19:06:39.024Z,0
2018-03-04T19:08:41.257Z,0
2018-03-04T19:10:42.674Z,0
2018-03-04T19:12:44.077Z,0
2018-03-04T19:14:46.277Z,0
2018-03-04T19:16:48.841Z,0
2018-03-04T19:18:52.629Z,0
2018-03-04T19:20:54.038Z,0
2018-03-04T19:22:56.197Z,0
2018-03-04T19:24:59.437Z,0
2018-03-04T19:27:01.738Z,0
2018-03-04T19:29:06.416Z,0
2018-03-04T19:31:07.831Z,0
2018-03-04T19:33:09.239Z,0
2018-03-04T19:35:15.228Z,0
2018-03-04T19:37:20.643Z,0
2018-03-04T19:39:26.578Z,0
2018-03-04T19:41:28.862Z,0
2018-03-04T19:43:30.356Z,0
2018-03-04T19:45:33.031Z,0
2018-03-04T19:47:35.162Z,0
2018-03-04T19:49:39.630Z,0
2018-03-04T19:51:43.684Z,0
2018-03-04T19:53:46.529Z,0
2018-03-04T19:55:52.528Z,0
2018-03-04T19:58:00.683Z,0
2018-03-04T20:00:04.776Z,0
2018-03-04T20:02:10.172Z,0
2018-03-04T20:04:17.529Z,0
2018-03-04T20:06:19.575Z,0
2018-03-04T20:08:24.032Z,0
2018-03-04T20:10:27.197Z,0
2018-03-04T20:12:30.890Z,0
2018-03-04T20:14:33.660Z,0
2018-03-04T20:16:36.922Z,0
2018-03-04T20:18:42.348Z,0
2018-03-04T20:20:45.532Z,0
2018-03-04T20:22:48.791Z,0
2018-03-04T20:24:54.149Z,0
2018-03-04T20:26:58.266Z,0
2018-03-04T20:29:01.981Z,0
2018-03-04T20:31:05.323Z,0
2018-03-04T20:33:09.198Z,0
2018-03-04T20:35:13.545Z,0
2018-03-04T20:37:16.567Z,0
2018-03-04T20:39:20.708Z,0
2018-03-04T20:41:23.775Z,0
2018-03-04T20:43:27.030Z,0
2018-03-04T20:45:31.126Z,0
2018-03-04T20:47:34.366Z,0
2018-03-04T20:49:37.852Z,0
2018-03-04T20:51:42.861Z,0
2018-03-04T20:53:46.946Z,0
2018-03-04T20:55:48.512Z,0
2018-03-04T20:57:50.702Z,0
2018-03-04T20:59:52.706Z,0
2018-03-04T21:01:55.136Z,0
2018-03-04T21:03:58.131Z,0
2018-03-04T21:05:59.668Z,0
2018-03-04T21:08:01.179Z,0
2018-03-04T21:10:02.708Z,0
2018-03-04T21:12:04.133Z,0
2018-03-04T21:14:05.558Z,0
2018-03-04T21:16:07.164Z,0
2018-03-04T21:18:08.589Z,0
2018-03-04T21:20:10.003Z,0
2018-03-04T21:22:11.422Z,0
2018-03-04T21:24:12.892Z,0
2018-03-04T21:26:14.242Z,0
2018-03-04T21:28:15.743Z,0
2018-03-04T21:30:17.273Z,0
2018-03-04T21:32:18.881Z,0
2018-03-04T21:34:20.310Z,0
2018-03-04T21:36:21.815Z,0
2018-03-04T21:38:23.128Z,0
2018-03-04T21:40:24.535Z,0
2018-03-04T21:42:25.944Z,0
2018-03-04T21:44:27.392Z,0
2018-03-04T21:47:09.752Z,0
2018-03-04T21:49:11.184Z,0
2018-03-04T21:51:12.567Z,0
2018-03-04T21:53:13.970Z,0
2018-03-04T21:55:15.376Z,0
2018-03-04T21:57:16.815Z,0
2018-03-04T21:59:18.217Z,0
2018-03-04T22:01:19.625Z,0
2018-03-04T22:03:21.660Z,0
2018-03-04T22:05:23.067Z,0
2018-03-04T22:07:24.473Z,0
2018-03-04T22:09:25.886Z,0
2018-03-04T22:11:27.306Z,0
2018-03-04T22:13:28.717Z,0
2018-03-04T22:15:30.125Z,0
2018-03-04T22:17:32.652Z,0
2018-03-04T22:19:34.113Z,0
2018-03-04T22:21:35.618Z,0
2018-03-04T22:23:37.091Z,0
2018-03-04T22:26:19.666Z,0
2018-03-04T22:28:21.081Z,0
2018-03-04T22:30:22.495Z,0
2018-03-04T22:32:24.087Z,0
2018-03-04T22:34:25.497Z,0
2018-03-04T22:36:26.924Z,0
2018-03-04T22:38:28.345Z,0
2018-03-04T22:40:29.769Z,0
2018-03-04T22:42:31.181Z,0
2018-03-04T22:45:13.571Z,0
2018-03-04T22:47:14.977Z,0
2018-03-04T22:49:16.384Z,0
2018-03-04T22:51:17.792Z,0
2018-03-04T22:53:19.230Z,0
2018-03-04T22:55:20.627Z,0
2018-03-04T22:57:22.205Z,0
2018-03-04T22:59:23.598Z,0
2018-03-04T23:01:25.025Z,0
2018-03-04T23:03:26.431Z,0
2018-03-04T23:06:08.813Z,0
2018-03-04T23:08:10.215Z,0
2018-03-04T23:10:11.664Z,0
2018-03-04T23:12:13.042Z,0
2018-03-04T23:14:14.460Z,0
2018-03-04T23:16:15.869Z,0
2018-03-04T23:18:17.279Z,0
2018-03-04T23:20:18.852Z,0
2018-03-04T23:22:20.260Z,0
2018-03-04T23:24:21.690Z,0
2018-03-04T23:26:23.222Z,0
2018-03-04T23:28:24.634Z,0
2018-03-04T23:30:26.041Z,0
2018-03-04T23:32:27.455Z,0
2018-03-04T23:34:28.860Z,0
2018-03-04T23:36:30.268Z,0
2018-03-04T23:38:31.672Z,0
2018-03-04T23:40:33.078Z,0
2018-03-04T23:42:34.493Z,0
2018-03-04T23:44:35.895Z,0
2018-03-04T23:46:37.303Z,0
2018-03-04T23:48:38.709Z,0
2018-03-04T23:50:40.160Z,0
2018-03-04T23:52:41.597Z,0
2018-03-04T23:54:43.045Z,0
2018-03-04T23:56:44.462Z,0
2018-03-04T23:58:45.922Z,0
